sensor_id;sensor_type;location;lat;lon;timestamp;temperature;humidity
37896;DHT22;23733;53.254;10.430;2023-03-01T00:00:24;0.20;99.90
37896;DHT22;23733;53.254;10.430;2023-03-01T00:02:50;0.20;99.90
37896;DHT22;23733;53.254;10.430;2023-03-01T00:05:16;0.30;99.90
37896;DHT22;23733;53.254;10.430;2023-03-01T00:07:42;0.20;99.90
37896;DHT22;23733;53.254;10.430;2023-03-01T00:10:09;0.20;99.90
37896;DHT22;23733;53.254;10.430;2023-03-01T00:12:35;0.20;99.90
37896;DHT22;23733;53.254;10.430;2023-03-01T00:15:04;0.20;99.90
37896;DHT22;23733;53.254;10.430;2023-03-01T00:17:30;0.20;99.90
37896;DHT22;23733;53.254;10.430;2023-03-01T00:19:56;0.10;99.90
37896;DHT22;23733;53.254;10.430;2023-03-01T00:22:22;0.10;99.90
37896;DHT22;23733;53.254;10.430;2023-03-01T00:24:49;0.00;99.90
37896;DHT22;23733;53.254;10.430;2023-03-01T00:27:15;0.00;99.90
37896;DHT22;23733;53.254;10.430;2023-03-01T00:29:41;-0.10;99.90
37896;DHT22;23733;53.254;10.430;2023-03-01T00:32:07;0.00;99.90
37896;DHT22;23733;53.254;10.430;2023-03-01T00:34:33;-0.10;99.90
37896;DHT22;23733;53.254;10.430;2023-03-01T00:36:59;-0.10;99.90
37896;DHT22;23733;53.254;10.430;2023-03-01T00:39:31;-0.10;99.90
37896;DHT22;23733;53.254;10.430;2023-03-01T00:41:58;-0.10;99.90
37896;DHT22;23733;53.254;10.430;2023-03-01T00:44:24;-0.10;99.90
37896;DHT22;23733;53.254;10.430;2023-03-01T00:46:53;-0.10;99.90
37896;DHT22;23733;53.254;10.430;2023-03-01T00:49:19;-0.10;99.90
37896;DHT22;23733;53.254;10.430;2023-03-01T00:51:45;-0.10;99.90
37896;DHT22;23733;53.254;10.430;2023-03-01T00:54:11;-0.10;99.90
37896;DHT22;23733;53.254;10.430;2023-03-01T00:56:37;-0.20;99.90
37896;DHT22;23733;53.254;10.430;2023-03-01T00:59:06;-0.20;99.90
37896;DHT22;23733;53.254;10.430;2023-03-01T01:01:32;-0.20;99.90
37896;DHT22;23733;53.254;10.430;2023-03-01T01:04:04;-0.10;99.90
37896;DHT22;23733;53.254;10.430;2023-03-01T01:06:44;-0.20;99.90
37896;DHT22;23733;53.254;10.430;2023-03-01T01:09:13;-0.10;99.90
37896;DHT22;23733;53.254;10.430;2023-03-01T01:11:47;-0.10;99.90
37896;DHT22;23733;53.254;10.430;2023-03-01T01:14:14;-0.20;99.90
37896;DHT22;23733;53.254;10.430;2023-03-01T01:16:40;-0.20;99.90
37896;DHT22;23733;53.254;10.430;2023-03-01T01:19:06;-0.20;99.90
37896;DHT22;23733;53.254;10.430;2023-03-01T01:21:35;-0.20;99.90
37896;DHT22;23733;53.254;10.430;2023-03-01T01:24:03;-0.20;99.90
37896;DHT22;23733;53.254;10.430;2023-03-01T01:26:31;-0.30;99.90
37896;DHT22;23733;53.254;10.430;2023-03-01T01:28:58;-0.30;99.90
37896;DHT22;23733;53.254;10.430;2023-03-01T01:31:25;-0.40;99.90
37896;DHT22;23733;53.254;10.430;2023-03-01T01:33:52;-0.30;99.90
37896;DHT22;23733;53.254;10.430;2023-03-01T01:36:19;-0.30;99.90
37896;DHT22;23733;53.254;10.430;2023-03-01T01:38:45;-0.30;99.90
37896;DHT22;23733;53.254;10.430;2023-03-01T01:41:12;-0.40;99.90
37896;DHT22;23733;53.254;10.430;2023-03-01T01:43:42;-0.40;99.90
37896;DHT22;23733;53.254;10.430;2023-03-01T01:46:31;-0.50;99.90
37896;DHT22;23733;53.254;10.430;2023-03-01T01:49:00;-0.50;99.90
37896;DHT22;23733;53.254;10.430;2023-03-01T01:51:31;-0.50;99.90
37896;DHT22;23733;53.254;10.430;2023-03-01T01:54:15;-0.50;99.90
37896;DHT22;23733;53.254;10.430;2023-03-01T01:56:44;-0.40;99.90
37896;DHT22;23733;53.254;10.430;2023-03-01T01:59:13;-0.40;99.90
37896;DHT22;23733;53.254;10.430;2023-03-01T02:01:40;-0.50;99.90
37896;DHT22;23733;53.254;10.430;2023-03-01T02:04:06;-0.50;99.90
37896;DHT22;23733;53.254;10.430;2023-03-01T02:06:39;-0.50;99.90
37896;DHT22;23733;53.254;10.430;2023-03-01T02:09:13;-0.50;99.90
37896;DHT22;23733;53.254;10.430;2023-03-01T02:11:40;-0.50;99.90
37896;DHT22;23733;53.254;10.430;2023-03-01T02:14:06;-0.60;99.90
37896;DHT22;23733;53.254;10.430;2023-03-01T02:16:33;-0.60;99.90
37896;DHT22;23733;53.254;10.430;2023-03-01T02:18:59;-0.60;99.90
37896;DHT22;23733;53.254;10.430;2023-03-01T02:24:17;-0.60;99.90
37896;DHT22;23733;53.254;10.430;2023-03-01T02:26:49;-0.60;99.90
37896;DHT22;23733;53.254;10.430;2023-03-01T02:29:15;-0.60;99.90
37896;DHT22;23733;53.254;10.430;2023-03-01T02:31:42;-0.60;99.90
37896;DHT22;23733;53.254;10.430;2023-03-01T02:34:13;-0.60;99.90
37896;DHT22;23733;53.254;10.430;2023-03-01T02:36:47;-0.70;99.90
37896;DHT22;23733;53.254;10.430;2023-03-01T02:39:20;-0.70;99.90
37896;DHT22;23733;53.254;10.430;2023-03-01T02:41:50;-0.70;99.90
37896;DHT22;23733;53.254;10.430;2023-03-01T02:44:17;-0.70;99.90
37896;DHT22;23733;53.254;10.430;2023-03-01T02:46:49;-0.70;99.90
37896;DHT22;23733;53.254;10.430;2023-03-01T02:49:23;-0.80;99.90
37896;DHT22;23733;53.254;10.430;2023-03-01T02:54:36;-0.80;99.90
37896;DHT22;23733;53.254;10.430;2023-03-01T02:57:05;-0.80;99.90
37896;DHT22;23733;53.254;10.430;2023-03-01T02:59:33;-0.80;99.90
37896;DHT22;23733;53.254;10.430;2023-03-01T03:02:17;-0.90;99.90
37896;DHT22;23733;53.254;10.430;2023-03-01T03:04:48;-0.80;99.90
37896;DHT22;23733;53.254;10.430;2023-03-01T03:07:14;-0.80;99.90
37896;DHT22;23733;53.254;10.430;2023-03-01T03:09:40;-0.80;99.90
37896;DHT22;23733;53.254;10.430;2023-03-01T03:12:06;-0.80;99.90
37896;DHT22;23733;53.254;10.430;2023-03-01T03:14:32;-0.90;99.90
37896;DHT22;23733;53.254;10.430;2023-03-01T03:17:00;-0.90;99.90
37896;DHT22;23733;53.254;10.430;2023-03-01T03:19:26;-0.90;99.90
37896;DHT22;23733;53.254;10.430;2023-03-01T03:21:52;-0.90;99.90
37896;DHT22;23733;53.254;10.430;2023-03-01T03:24:18;-0.90;99.90
37896;DHT22;23733;53.254;10.430;2023-03-01T03:26:44;-0.90;99.90
37896;DHT22;23733;53.254;10.430;2023-03-01T03:29:10;-0.90;99.90
37896;DHT22;23733;53.254;10.430;2023-03-01T03:31:39;-1.00;99.90
37896;DHT22;23733;53.254;10.430;2023-03-01T03:34:05;-1.00;99.90
37896;DHT22;23733;53.254;10.430;2023-03-01T03:36:33;-1.00;99.90
37896;DHT22;23733;53.254;10.430;2023-03-01T03:39:02;-1.00;99.90
37896;DHT22;23733;53.254;10.430;2023-03-01T03:41:28;-1.00;99.90
37896;DHT22;23733;53.254;10.430;2023-03-01T03:43:54;-1.00;99.90
37896;DHT22;23733;53.254;10.430;2023-03-01T03:46:23;-1.00;99.90
37896;DHT22;23733;53.254;10.430;2023-03-01T03:48:49;-1.00;99.90
37896;DHT22;23733;53.254;10.430;2023-03-01T03:51:17;-1.00;99.90
37896;DHT22;23733;53.254;10.430;2023-03-01T03:53:43;-1.10;99.90
37896;DHT22;23733;53.254;10.430;2023-03-01T03:56:10;-1.10;99.90
37896;DHT22;23733;53.254;10.430;2023-03-01T03:58:39;-1.10;99.90
37896;DHT22;23733;53.254;10.430;2023-03-01T04:01:05;-1.20;99.90
37896;DHT22;23733;53.254;10.430;2023-03-01T04:03:32;-1.20;99.90
37896;DHT22;23733;53.254;10.430;2023-03-01T04:06:03;-1.20;99.90
37896;DHT22;23733;53.254;10.430;2023-03-01T04:08:32;-1.20;99.90
37896;DHT22;23733;53.254;10.430;2023-03-01T04:11:01;-1.30;99.90
37896;DHT22;23733;53.254;10.430;2023-03-01T04:13:47;-1.30;99.90
37896;DHT22;23733;53.254;10.430;2023-03-01T04:16:13;-1.40;99.90
37896;DHT22;23733;53.254;10.430;2023-03-01T04:18:42;-1.50;99.90
37896;DHT22;23733;53.254;10.430;2023-03-01T04:21:08;-1.50;99.90
37896;DHT22;23733;53.254;10.430;2023-03-01T04:23:34;-1.50;99.90
37896;DHT22;23733;53.254;10.430;2023-03-01T04:26:00;-1.50;99.90
37896;DHT22;23733;53.254;10.430;2023-03-01T04:28:32;-1.40;99.90
37896;DHT22;23733;53.254;10.430;2023-03-01T04:31:04;-1.40;99.90
37896;DHT22;23733;53.254;10.430;2023-03-01T04:33:50;-1.40;99.90
37896;DHT22;23733;53.254;10.430;2023-03-01T04:36:22;-1.40;99.90
37896;DHT22;23733;53.254;10.430;2023-03-01T04:38:48;-1.40;99.90
37896;DHT22;23733;53.254;10.430;2023-03-01T04:41:17;-1.40;99.90
37896;DHT22;23733;53.254;10.430;2023-03-01T04:43:44;-1.40;99.90
37896;DHT22;23733;53.254;10.430;2023-03-01T04:46:13;-1.30;99.90
37896;DHT22;23733;53.254;10.430;2023-03-01T04:48:41;-1.30;99.90
37896;DHT22;23733;53.254;10.430;2023-03-01T04:51:07;-1.30;99.90
37896;DHT22;23733;53.254;10.430;2023-03-01T04:53:35;-1.30;99.90
37896;DHT22;23733;53.254;10.430;2023-03-01T04:56:04;-1.30;99.90
37896;DHT22;23733;53.254;10.430;2023-03-01T04:58:30;-1.30;99.90
37896;DHT22;23733;53.254;10.430;2023-03-01T05:00:56;-1.30;99.90
37896;DHT22;23733;53.254;10.430;2023-03-01T05:03:25;-1.40;99.90
37896;DHT22;23733;53.254;10.430;2023-03-01T05:05:52;-1.40;99.90
37896;DHT22;23733;53.254;10.430;2023-03-01T05:08:19;-1.40;99.90
37896;DHT22;23733;53.254;10.430;2023-03-01T05:10:49;-1.40;99.90
37896;DHT22;23733;53.254;10.430;2023-03-01T05:13:16;-1.40;99.90
37896;DHT22;23733;53.254;10.430;2023-03-01T05:15:57;-1.40;99.90
37896;DHT22;23733;53.254;10.430;2023-03-01T05:18:25;-1.50;99.90
37896;DHT22;23733;53.254;10.430;2023-03-01T05:20:55;-1.50;99.90
37896;DHT22;23733;53.254;10.430;2023-03-01T05:23:24;-1.50;99.90
37896;DHT22;23733;53.254;10.430;2023-03-01T05:25:50;-1.50;99.90
37896;DHT22;23733;53.254;10.430;2023-03-01T05:28:19;-1.50;99.90
37896;DHT22;23733;53.254;10.430;2023-03-01T05:30:46;-1.50;99.90
37896;DHT22;23733;53.254;10.430;2023-03-01T05:33:12;-1.60;99.90
37896;DHT22;23733;53.254;10.430;2023-03-01T05:35:42;-1.50;99.90
37896;DHT22;23733;53.254;10.430;2023-03-01T05:38:10;-1.50;99.90
37896;DHT22;23733;53.254;10.430;2023-03-01T05:40:43;-1.50;99.90
37896;DHT22;23733;53.254;10.430;2023-03-01T05:43:10;-1.50;99.90
37896;DHT22;23733;53.254;10.430;2023-03-01T05:45:37;-1.50;99.90
37896;DHT22;23733;53.254;10.430;2023-03-01T05:48:05;-1.40;99.90
37896;DHT22;23733;53.254;10.430;2023-03-01T05:50:37;-1.40;99.90
37896;DHT22;23733;53.254;10.430;2023-03-01T05:53:18;-1.40;99.90
37896;DHT22;23733;53.254;10.430;2023-03-01T05:55:47;-1.40;99.90
37896;DHT22;23733;53.254;10.430;2023-03-01T05:58:17;-1.40;99.90
37896;DHT22;23733;53.254;10.430;2023-03-01T06:00:46;-1.40;99.90
37896;DHT22;23733;53.254;10.430;2023-03-01T06:03:17;-1.40;99.90
37896;DHT22;23733;53.254;10.430;2023-03-01T06:05:43;-1.40;99.90
37896;DHT22;23733;53.254;10.430;2023-03-01T06:08:10;-1.40;99.90
37896;DHT22;23733;53.254;10.430;2023-03-01T06:10:36;-1.40;99.90
37896;DHT22;23733;53.254;10.430;2023-03-01T06:13:02;-1.50;99.90
37896;DHT22;23733;53.254;10.430;2023-03-01T06:15:28;-1.50;99.90
37896;DHT22;23733;53.254;10.430;2023-03-01T06:17:55;-1.40;99.90
37896;DHT22;23733;53.254;10.430;2023-03-01T06:20:26;-1.50;99.90
37896;DHT22;23733;53.254;10.430;2023-03-01T06:22:53;-1.50;99.90
37896;DHT22;23733;53.254;10.430;2023-03-01T06:25:26;-1.50;99.90
37896;DHT22;23733;53.254;10.430;2023-03-01T06:27:52;-1.40;99.90
37896;DHT22;23733;53.254;10.430;2023-03-01T06:30:20;-1.40;99.90
37896;DHT22;23733;53.254;10.430;2023-03-01T06:32:52;-1.40;99.90
37896;DHT22;23733;53.254;10.430;2023-03-01T06:35:19;-1.40;99.90
37896;DHT22;23733;53.254;10.430;2023-03-01T06:37:46;-1.40;99.90
37896;DHT22;23733;53.254;10.430;2023-03-01T06:40:13;-1.50;99.90
37896;DHT22;23733;53.254;10.430;2023-03-01T06:42:41;-1.40;99.90
37896;DHT22;23733;53.254;10.430;2023-03-01T06:45:08;-1.40;99.90
37896;DHT22;23733;53.254;10.430;2023-03-01T06:47:34;-1.40;99.90
37896;DHT22;23733;53.254;10.430;2023-03-01T06:50:01;-1.40;99.90
37896;DHT22;23733;53.254;10.430;2023-03-01T06:52:28;-1.40;99.90
37896;DHT22;23733;53.254;10.430;2023-03-01T06:54:55;-1.40;99.90
37896;DHT22;23733;53.254;10.430;2023-03-01T06:57:21;-1.30;99.90
37896;DHT22;23733;53.254;10.430;2023-03-01T06:59:47;-1.30;99.90
37896;DHT22;23733;53.254;10.430;2023-03-01T07:02:14;-1.30;99.90
37896;DHT22;23733;53.254;10.430;2023-03-01T07:04:41;-1.20;99.90
37896;DHT22;23733;53.254;10.430;2023-03-01T07:07:07;-1.20;99.90
37896;DHT22;23733;53.254;10.430;2023-03-01T07:09:33;-1.20;99.90
37896;DHT22;23733;53.254;10.430;2023-03-01T07:11:59;-1.20;99.90
37896;DHT22;23733;53.254;10.430;2023-03-01T07:14:25;-1.20;99.90
37896;DHT22;23733;53.254;10.430;2023-03-01T07:16:55;-1.20;99.90
37896;DHT22;23733;53.254;10.430;2023-03-01T07:19:22;-1.10;99.90
37896;DHT22;23733;53.254;10.430;2023-03-01T07:21:48;-1.10;99.90
37896;DHT22;23733;53.254;10.430;2023-03-01T07:24:14;-1.10;99.90
37896;DHT22;23733;53.254;10.430;2023-03-01T07:26:40;-1.10;99.90
37896;DHT22;23733;53.254;10.430;2023-03-01T07:29:09;-1.10;99.90
37896;DHT22;23733;53.254;10.430;2023-03-01T07:31:35;-1.10;99.90
37896;DHT22;23733;53.254;10.430;2023-03-01T07:34:02;-1.00;99.90
37896;DHT22;23733;53.254;10.430;2023-03-01T07:36:31;-1.00;99.90
37896;DHT22;23733;53.254;10.430;2023-03-01T07:38:57;-1.00;99.90
37896;DHT22;23733;53.254;10.430;2023-03-01T07:41:24;-0.90;99.90
37896;DHT22;23733;53.254;10.430;2023-03-01T07:43:50;-0.90;99.90
37896;DHT22;23733;53.254;10.430;2023-03-01T07:46:16;-0.90;99.90
37896;DHT22;23733;53.254;10.430;2023-03-01T07:48:49;-0.80;99.90
37896;DHT22;23733;53.254;10.430;2023-03-01T07:51:15;-0.80;99.90
37896;DHT22;23733;53.254;10.430;2023-03-01T07:53:41;-0.80;99.90
37896;DHT22;23733;53.254;10.430;2023-03-01T07:56:14;-0.80;99.90
37896;DHT22;23733;53.254;10.430;2023-03-01T07:58:43;-0.70;99.90
37896;DHT22;23733;53.254;10.430;2023-03-01T08:01:15;-0.70;99.90
37896;DHT22;23733;53.254;10.430;2023-03-01T08:03:42;-0.70;99.90
37896;DHT22;23733;53.254;10.430;2023-03-01T08:06:11;-0.70;99.90
37896;DHT22;23733;53.254;10.430;2023-03-01T08:08:40;-0.60;99.90
37896;DHT22;23733;53.254;10.430;2023-03-01T08:11:08;-0.60;99.90
37896;DHT22;23733;53.254;10.430;2023-03-01T08:13:35;-0.60;99.90
37896;DHT22;23733;53.254;10.430;2023-03-01T08:16:15;-0.50;99.90
37896;DHT22;23733;53.254;10.430;2023-03-01T08:18:53;-0.50;99.90
37896;DHT22;23733;53.254;10.430;2023-03-01T08:21:28;-0.50;99.90
37896;DHT22;23733;53.254;10.430;2023-03-01T08:28:22;-0.40;99.90
37896;DHT22;23733;53.254;10.430;2023-03-01T08:30:36;-0.40;99.90
37896;DHT22;23733;53.254;10.430;2023-03-01T08:33:02;-0.30;99.90
37896;DHT22;23733;53.254;10.430;2023-03-01T08:35:28;-0.30;99.90
37896;DHT22;23733;53.254;10.430;2023-03-01T08:37:57;-0.30;99.90
37896;DHT22;23733;53.254;10.430;2023-03-01T08:40:23;-0.20;99.90
37896;DHT22;23733;53.254;10.430;2023-03-01T08:42:49;-0.20;99.90
37896;DHT22;23733;53.254;10.430;2023-03-01T08:45:15;-0.10;99.90
37896;DHT22;23733;53.254;10.430;2023-03-01T08:47:44;-0.10;99.90
37896;DHT22;23733;53.254;10.430;2023-03-01T20:01:59;0.00;99.90
37896;DHT22;23733;53.254;10.430;2023-03-01T20:04:25;2.80;99.90
37896;DHT22;23733;53.254;10.430;2023-03-01T20:06:51;2.70;99.90
37896;DHT22;23733;53.254;10.430;2023-03-01T20:09:17;2.60;99.90
37896;DHT22;23733;53.254;10.430;2023-03-01T20:11:43;2.60;99.90
37896;DHT22;23733;53.254;10.430;2023-03-01T20:14:11;2.60;99.90
37896;DHT22;23733;53.254;10.430;2023-03-01T20:17:01;2.60;99.90
37896;DHT22;23733;53.254;10.430;2023-03-01T20:19:29;2.60;99.90
37896;DHT22;23733;53.254;10.430;2023-03-01T20:21:55;2.60;99.90
37896;DHT22;23733;53.254;10.430;2023-03-01T20:24:21;2.60;99.90
37896;DHT22;23733;53.254;10.430;2023-03-01T20:26:47;2.50;99.90
37896;DHT22;23733;53.254;10.430;2023-03-01T20:29:14;2.50;99.90
37896;DHT22;23733;53.254;10.430;2023-03-01T20:31:43;2.50;99.90
37896;DHT22;23733;53.254;10.430;2023-03-01T20:34:10;2.50;99.90
37896;DHT22;23733;53.254;10.430;2023-03-01T20:36:39;2.50;99.90
37896;DHT22;23733;53.254;10.430;2023-03-01T20:39:12;2.40;99.90
37896;DHT22;23733;53.254;10.430;2023-03-01T20:41:38;2.40;99.90
37896;DHT22;23733;53.254;10.430;2023-03-01T20:44:10;2.40;99.90
37896;DHT22;23733;53.254;10.430;2023-03-01T20:46:37;2.30;99.90
37896;DHT22;23733;53.254;10.430;2023-03-01T20:49:06;2.30;99.90
37896;DHT22;23733;53.254;10.430;2023-03-01T22:57:05;2.20;99.90
37896;DHT22;23733;53.254;10.430;2023-03-01T22:59:31;1.40;99.90
37896;DHT22;23733;53.254;10.430;2023-03-01T23:01:57;1.30;99.90
37896;DHT22;23733;53.254;10.430;2023-03-01T23:04:23;1.20;99.90
37896;DHT22;23733;53.254;10.430;2023-03-01T23:06:49;1.20;99.90
